Nearby METAR Reports

 

KHAO - Hamilton, Ohio, USA
Distance from station: WSW 7mi, 11km
Updated: 10,22/2021 8:53am
Overcast
Overcast
 Wind from calm
Wind: Calm
Temperature: 52°F , 11°C
Dew Point: 48°F , 9°C
Humidity: 88%
Barometer: 30.08 inHg , 1018.6 hPa
Clouds: Overcast
Visibility: 10 miles , 16 km
Cloud details: Overcast 1800 ft
2021/10/22 12:53 KHAO 221253Z AUTO 00000KT 10SM OVC018 11/09 A3008 RMK AO2 SLP186 T01110089
KI68 - Lebanon, Ohio, USA
Distance from station: ENE 9mi, 15km
Updated: 10,22/2021 9:15am
Overcast
Overcast
 Wind from N
Wind: N 5 mph , 7 km/h
Temperature: 50°F , 10°C
Wind Chill: 48°F , 9°C
Dew Point: 46°F , 8°C
Humidity: 88%
Barometer: 30.07 inHg , 1018.3 hPa
Clouds: Overcast
Visibility: 10 miles , 16 km
Cloud details: Overcast 1300 ft
2021/10/22 13:15 KI68 221315Z AUTO 36004KT 10SM OVC013 10/08 A3007 RMK AO1 T01010077
KMWO - Middletown/Hook, Ohio, USA
Distance from station: N 10mi, 16km
Updated: 10,22/2021 9:15am
Overcast
Overcast
 Wind from N
Wind: N 8 mph , 13 km/h
Temperature: 50°F , 10°C
Wind Chill: 47°F , 8°C
Dew Point: 45°F , 7°C
Humidity: 82%
Barometer: 30.08 inHg , 1018.6 hPa
Clouds: Overcast
Visibility: 10 miles , 16 km
Cloud details: Overcast 1600 ft
2021/10/22 13:15 KMWO 221315Z AUTO 01007KT 10SM OVC016 10/07 A3008 RMK AO2 T01040069
 
KMGY - Dayton, Ohio, USA
Distance from station: NNE 17mi, 27km
Updated: 10,22/2021 8:53am
Overcast
Overcast
 Wind from NNW
Wind: NNW 6 mph , 9 km/h
Temperature: 52°F , 11°C
Dew Point: 45°F , 7°C
Humidity: 77%
Barometer: 30.05 inHg , 1017.6 hPa
Clouds: Overcast
Visibility: 10 miles , 16 km
Cloud details: Overcast 1500 ft
2021/10/22 12:53 KMGY 221253Z AUTO 34005KT 10SM OVC015 11/07 A3005 RMK AO2 SLP177 T01060067
KLUK - Cincinnat/Lunken, Ohio, USA
Distance from station: S 20mi, 33km
Updated: 10,22/2021 8:53am
Overcast
Overcast
 Wind from W
Wind: W 6 mph , 9 km/h
Temperature: 54°F , 12°C
Dew Point: 48°F , 9°C
Humidity: 82%
Barometer: 30.08 inHg , 1018.6 hPa
Clouds: Overcast
Visibility: 10 miles , 16 km
Cloud details: Overcast 1700 ft
2021/10/22 12:53 KLUK 221253Z 27005KT 10SM OVC017 12/09 A3008 RMK AO2 SLP185 T01170089
KI67 - Harrison, Ohio, USA
Distance from station: WSW 22mi, 35km
Updated: 10,22/2021 9:15am
Overcast
Overcast
 Wind from calm
Wind: Calm
Temperature: 50°F , 10°C
Dew Point: 46°F , 8°C
Humidity: 88%
Barometer: 30.07 inHg , 1018.3 hPa
Clouds: Overcast
Visibility: 5 miles , 8 km
Cloud details: Overcast 1300 ft
2021/10/22 13:15 KI67 221315Z AUTO 00000KT 5SM OVC013 10/08 A3007 RMK AO1
 
KOXD - Oxford, Ohio, USA
Distance from station: WNW 22mi, 35km
Updated: 10,09/2021 6:15pm
NOT Current
Partly cloudy
Partly cloudy
 Wind from S
Wind: S 6 mph , 9 km/h
Temperature: 77°F , 25°C
Dew Point: 59°F , 15°C
Humidity: 54%
Barometer: 29.97 inHg , 1014.9 hPa
Clouds: Partly cloudy
Visibility: 10 miles , 16 km
Cloud details: Partly cloudy 8000 ft
2021/10/09 22:15 KOXD 092215Z AUTO 18005KT 10SM SCT080 25/15 A2997 RMK AO2 T02480148
KI69 - Batavia, Ohio, USA
Distance from station: SSE 23mi, 38km
Updated: 10,22/2021 9:15am
Overcast
Overcast
 Wind from WSW
Wind: WSW 7 mph , 11 km/h
Temperature: 50°F , 10°C
Wind Chill: 47°F , 8°C
Dew Point: 48°F , 9°C
Humidity: 94%
Barometer: 30.08 inHg , 1018.6 hPa
Clouds: Overcast
Visibility: 10 miles , 16 km
Cloud details: Overcast 1700 ft
2021/10/22 13:15 KI69 221315Z AUTO 24006KT 10SM OVC017 10/09 A3008 RMK AO2 T01010085
KCVG - Covington, Kentucky, USA
Distance from station: SSW 28mi, 45km
Updated: 10,22/2021 8:52am
Mist, Overcast
Mist, Overcast
 Wind from SW
Wind: SW 5 mph , 7 km/h
Temperature: 50°F , 10°C
Wind Chill: 48°F , 9°C
Dew Point: 46°F , 8°C
Humidity: 88%
Barometer: 30.07 inHg , 1018.3 hPa
Summary: Mist
Clouds: Overcast
Visibility: 6 miles , 10 km
Cloud details: Overcast 900 ft
2021/10/22 12:52 KCVG 221252Z 23004KT 6SM BR OVC009 10/08 A3007 RMK AO2 SLP180 T01000078
 
KI19 - Dayton-Jackson, Ohio, USA
Distance from station: NE 29mi, 47km
Updated: 10,22/2021 9:15am
Overcast
Overcast
 Wind from calm
Wind: Calm
Temperature: 48°F , 9°C
Dew Point: 43°F , 6°C
Humidity: 82%
Barometer: 30.08 inHg , 1018.6 hPa
Clouds: Overcast
Visibility: 10 miles , 16 km
Cloud details: Overcast 2600 ft
2021/10/22 13:15 KI19 221315Z AUTO 00000KT 10SM OVC026 09/06 A3008 RMK AO2 T00920062
KILN - Wilmington, Ohio, USA
Distance from station: E 32mi, 52km
Updated: 10,22/2021 9:07am
Overcast
Overcast
 Wind from NNW
Wind: NNW 8 mph , 13 km/h
Temperature: 50°F , 10°C
Wind Chill: 47°F , 8°C
Dew Point: 48°F , 9°C
Humidity: 94%
Barometer: 30.05 inHg , 1017.6 hPa
Clouds: Overcast
Visibility: 9 miles , 14 km
Cloud details: Mostly cloudy 700 ft
Overcast 1600 ft
2021/10/22 13:07 KILN 221307Z AUTO 33007KT 9SM BKN007 OVC016 10/09 A3005 RMK AO2 CIG 006V011 T01000089 $
KRID - Richmond, Indiana, USA
Distance from station: NW 34mi, 55km
Updated: 10,22/2021 9:15am
Overcast
Overcast
 Wind from calm
Wind: Calm
Temperature: 46°F , 8°C
Dew Point: 45°F , 7°C
Humidity: 93%
Barometer: 30.07 inHg , 1018.3 hPa
Clouds: Overcast
Visibility: 10 miles , 16 km
Cloud details: Overcast 1200 ft
2021/10/22 13:15 KRID 221315Z AUTO 00000KT 10SM OVC012 08/07 A3007 RMK AO2
 
KFFO - Wright Paterson, Ohio, USA
Distance from station: NNE 35mi, 57km
Updated: 10,22/2021 8:56am
Overcast
Overcast
 Wind from NW
Wind: NW 6 mph , 9 km/h
Temperature: 50°F , 10°C
Wind Chill: 48°F , 9°C
Dew Point: 37°F , 3°C
Humidity: 62%
Barometer: 30.06 inHg , 1017.9 hPa
Clouds: Overcast
Visibility: 10 miles , 16 km
Cloud details: Mostly cloudy 2700 ft
Overcast 5500 ft
2021/10/22 12:56 KFFO 221256Z 32005KT 10SM BKN027 OVC055 10/03 A3006 RMK AO2A CIG 027V055 CIG 026 RWY05L SLP184 T00950032
KDAY - Dayton, Ohio, USA
Distance from station: NNE 36mi, 58km
Updated: 10,22/2021 9:14am
Overcast
Overcast
 Wind from NW
Wind: NW 5 mph , 7 km/h
Temperature: 48°F , 9°C
Wind Chill: 46°F , 8°C
Dew Point: 37°F , 3°C
Humidity: 66%
Barometer: 30.08 inHg , 1018.6 hPa
Clouds: Overcast
Visibility: 10 miles , 16 km
Cloud details: Partly cloudy 2400 ft
Partly cloudy 3200 ft
Overcast 5500 ft
2021/10/22 13:14 KDAY 221314Z 32004KT 10SM SCT024 SCT032 OVC055 09/03 A3008 RMK AO2 CIG 023 RWY 6L T00940033
KSGH - Springfield Muni, Ohio, USA
Distance from station: NE 43mi, 69km
Updated: 10,22/2021 8:56am
Overcast
Overcast
 Wind from NW
Wind: NW 6 mph , 9 km/h
Temperature: 48°F , 9°C
Wind Chill: 45°F , 7°C
Dew Point: 46°F , 8°C
Humidity: 94%
Barometer: 30.06 inHg , 1017.9 hPa
Clouds: Overcast
Visibility: 10 miles , 16 km
Cloud details: Overcast 5500 ft
2021/10/22 12:56 KSGH 221256Z AUTO 31005KT 10SM OVC055 09/08 A3006 RMK AO2 SLP182 T00890083 PNO $
 
KK62 - Falmouth, Kentucky, USA
Distance from station: S 48mi, 77km
Updated: 10,22/2021 8:55am
Overcast
Overcast
 Wind from calm
Wind: Calm
Temperature: 46°F , 8°C
Dew Point: 45°F , 7°C
Humidity: 93%
Barometer: 30.08 inHg , 1018.6 hPa
Clouds: Overcast
Visibility: 10 miles , 16 km
Cloud details: Overcast 1200 ft
2021/10/22 12:55 KK62 221255Z AUTO 00000KT 10SM OVC012 08/07 A3008 RMK AO2
KI23 - Washington Court, Ohio, USA
Distance from station: ENE 54mi, 86km
Updated: 10,22/2021 9:15am
Overcast
Overcast
 Wind from NW
Wind: NW 6 mph , 9 km/h
Temperature: 50°F , 10°C
Wind Chill: 48°F , 9°C
Dew Point: 46°F , 8°C
Humidity: 88%
Barometer: 30.05 inHg , 1017.6 hPa
Clouds: Overcast
Visibility: 10 miles , 16 km
Cloud details: Mostly cloudy 1400 ft
Overcast 4500 ft
2021/10/22 13:15 KI23 221315Z AUTO 32005KT 10SM BKN014 OVC045 10/08 A3005 RMK AO1
KVES - Versailles, Ohio, USA
Distance from station: N 56mi, 90km
Updated: 10,22/2021 9:15am
Overcast
Overcast
 Wind from NW
Wind: NW 3 mph , 6 km/h
Temperature: 45°F , 7°C
Dew Point: 34°F , 1°C
Humidity: 66%
Barometer: 30.07 inHg , 1018.3 hPa
Clouds: Overcast
Visibility: 10 miles , 16 km
Cloud details: Mostly cloudy 2900 ft
Mostly cloudy 3600 ft
Overcast 4700 ft
2021/10/22 13:15 KVES 221315Z AUTO 32003KT 10SM BKN029 BKN036 OVC047 07/01 A3007 RMK AO2
 
KI74 - Urbana, Ohio, USA
Distance from station: NNE 62mi, 99km
Updated: 10,22/2021 9:15am
Overcast
Overcast
 Wind from calm
Wind: Calm
Temperature: 46°F , 8°C
Dew Point: 43°F , 6°C
Humidity: 87%
Barometer: 30.06 inHg , 1017.9 hPa
Clouds: Overcast
Visibility: 10 miles , 16 km
Cloud details: Partly cloudy 1100 ft
Overcast 5000 ft
2021/10/22 13:15 KI74 221315Z AUTO 00000KT 10SM SCT011 OVC050 08/06 A3006 RMK AO2
KUYF - London, Ohio, USA
Distance from station: NE 62mi, 100km
Updated: 10,22/2021 9:15am
Overcast
Overcast
 Wind from NW
Wind: NW 6 mph , 9 km/h
Temperature: 48°F , 9°C
Wind Chill: 45°F , 7°C
Dew Point: 45°F , 7°C
Humidity: 87%
Barometer: 30.05 inHg , 1017.6 hPa
Clouds: Overcast
Visibility: 10 miles , 16 km
Cloud details: Partly cloudy 1300 ft
Mostly cloudy 2200 ft
Overcast 5000 ft
2021/10/22 13:15 KUYF 221315Z AUTO 31005KT 10SM SCT013 BKN022 OVC050 09/07 A3005 RMK AO2